This is the latest recevied weather packets stored in our database for station/object KI4MRC. If no packets are shown the sender has not sent any weather packets the latest 10 day(s).
| Time | Temp. | Humidity | Pressure | Rain* | Wind** | Luminosity | Snow |
|---|---|---|---|---|---|---|---|
| 1778008679 | 28.89° C | 69% | 1014.5 hPa | 0 mm | - | 246 W/m² | - |
| 1778008378 | 28.89° C | 68% | 1014.5 hPa | 0 mm | - | 709 W/m² | - |
| 1778008074 | 29.44° C | 67% | 1014.7 hPa | 0 mm | - | 345 W/m² | - |
| 1778007769 | 28.89° C | 67% | 1014.7 hPa | 0 mm | - | 800 W/m² | - |
| 1778007466 | 28.89° C | 69% | 1014.7 hPa | 0 mm | - | 800 W/m² | - |
| 1778006858 | 28.33° C | 70% | 1014.6 hPa | 0 mm | - | 397 W/m² | - |
| 1778005950 | 28.89° C | 70% | 1014.6 hPa | 0 mm | - | 300 W/m² | - |
| 1778005646 | 29.44° C | 69% | 1014.7 hPa | 0 mm | - | 273 W/m² | - |
| 1778002612 | 28.33° C | 72% | 1015.1 hPa | 0 mm | - | 540 W/m² | - |
| 1778002007 | 28.33° C | 72% | 1014.8 hPa | 0 mm | - | 1045 W/m² | - |
| 1778001704 | 27.78° C | 73% | 1014.9 hPa | 0 mm | - | 621 W/m² | - |
| 1778001404 | 27.78° C | 74% | 1015.1 hPa | 0 mm | - | 1114 W/m² | - |
| 1778000798 | 27.78° C | 72% | 1015.2 hPa | 0 mm | - | 234 W/m² | - |
| 1777999581 | 28.89° C | 70% | 1015.1 hPa | 0 mm | - | 461 W/m² | - |
| 1777998977 | 28.89° C | 71% | 1015.2 hPa | 0 mm | - | 1136 W/m² | - |
| 1777998372 | 28.33° C | 72% | 1015.3 hPa | 0 mm | - | 307 W/m² | - |
| 1777995341 | 27.22° C | 76% | 1015.2 hPa | 0 mm | - | 222 W/m² | - |
| 1777995038 | 27.22° C | 78% | 1015.1 hPa | 0 mm | - | 284 W/m² | - |
| 1777994734 | 27.78° C | 75% | 1015.5 hPa | 0 mm | - | 175 W/m² | - |
| 1777994131 | 28.33° C | 72% | 1015.3 hPa | 0 mm | - | 972 W/m² | - |
| 1777993221 | 27.22° C | 76% | 1015.5 hPa | 0 mm | - | 886 W/m² | - |
| 1777991708 | 27.22° C | 77% | 1015.5 hPa | 0 mm | - | 227 W/m² | - |
| 1777991102 | 27.78° C | 75% | 1015.4 hPa | 0 mm | - | 466 W/m² | - |
| 1777990799 | 27.78° C | 76% | 1015.1 hPa | 0 mm | - | 164 W/m² | - |
| 1777990496 | 27.78° C | 76% | 1015.1 hPa | 0 mm | - | 760 W/m² | - |
* Rain latest hour (hover to see other rain measurements)
** Current wind speed in m/s (hover to see current wind gust speed)